Charlevoix, Michigan
Current Conditions -  °F | °C
As of 9:35 PM on Friday 24 Oct 2014 (Local Time) from KCVX Reporting Station
Clear Clear  
Wind Chill: 10°   Ceiling: Unl
Heat Index: 10°   Visibility: 10mi
Dew Point:   Wind: 3mph
Humidity: 92%   Direction: 180°S
Pressure: 29.91"   Gusts: NA
Location:  45.32°N, 85.26°W
Report Text: KCVX 250135Z AUTO 18003KT 10SM CLR 10/09 A2991 RMK AO2 T00990086
Loading
Personal Weather Stations






























Interactive Weather Map
Tropical Storm Tracking
New forecast layout! Learn more

10-Day Weather Forecast

Advertisements
Track Severe Weather on mobile